createdAt,value
2023-10-26T00:04:52.507Z,3.30
2023-10-26T00:09:55.213Z,2.70
2023-10-26T00:14:57.922Z,2.90
2023-10-26T00:20:00.659Z,3.10
2023-10-26T00:25:04.434Z,2.50
2023-10-26T00:30:10.784Z,3.10
2023-10-26T00:35:13.594Z,2.20
2023-10-26T00:40:16.296Z,2.70
2023-10-26T00:45:19.617Z,3.20
2023-10-26T00:50:22.503Z,3.40
2023-10-26T00:55:26.346Z,3.10
2023-10-26T01:00:29.241Z,3.00
2023-10-26T01:05:32.085Z,4.10
2023-10-26T01:10:36.590Z,3.10
2023-10-26T01:15:39.603Z,3.30
2023-10-26T01:20:45.527Z,4.20
2023-10-26T01:25:56.022Z,3.70
2023-10-26T01:30:59.390Z,3.30
2023-10-26T01:36:03.089Z,3.70
2023-10-26T01:41:06.348Z,3.10
2023-10-26T01:46:09.097Z,3.70
2023-10-26T01:51:12.104Z,3.80
2023-10-26T02:01:17.684Z,3.80
2023-10-26T02:06:20.476Z,3.90
2023-10-26T02:11:23.358Z,4.20
2023-10-26T02:16:26.073Z,4.20
2023-10-26T02:21:28.849Z,4.20
2023-10-26T02:26:31.651Z,4.50
2023-10-26T02:31:34.516Z,5.20
2023-10-26T02:36:37.207Z,3.60
2023-10-26T02:41:39.967Z,4.40
2023-10-26T02:46:42.667Z,4.00
2023-10-26T02:51:45.427Z,3.20
2023-10-26T02:56:48.254Z,3.60
2023-10-26T03:01:51.020Z,3.90
2023-10-26T03:06:54.054Z,4.20
2023-10-26T03:11:57.385Z,4.40
2023-10-26T03:17:00.150Z,5.40
2023-10-26T03:22:02.889Z,4.30
2023-10-26T03:27:05.868Z,4.60
2023-10-26T03:37:11.612Z,3.50
2023-10-26T03:42:14.399Z,3.10
2023-10-26T03:47:19.021Z,4.30
2023-10-26T03:52:23.609Z,3.80
2023-10-26T03:57:26.368Z,2.90
2023-10-26T04:02:29.342Z,4.70
2023-10-26T04:07:32.117Z,5.00
2023-10-26T04:12:35.496Z,3.20
2023-10-26T04:17:38.411Z,3.00
2023-10-26T04:22:41.155Z,2.90
2023-10-26T04:27:43.920Z,3.70
2023-10-26T04:32:46.658Z,3.50
2023-10-26T04:37:49.345Z,3.10
2023-10-26T04:42:52.032Z,3.80
2023-10-26T04:47:54.912Z,18.40
2023-10-26T04:52:57.749Z,5.80
2023-10-26T04:58:04.520Z,4.40
2023-10-26T05:03:07.255Z,3.70
2023-10-26T05:08:10.350Z,4.00
2023-10-26T05:13:13.235Z,5.10
2023-10-26T05:18:15.995Z,4.90
2023-10-26T05:23:18.862Z,6.30
2023-10-26T05:28:21.618Z,6.20
2023-10-26T05:33:24.688Z,7.90
2023-10-26T05:43:30.022Z,5.60
2023-10-26T05:48:34.123Z,5.70
2023-10-26T05:53:36.979Z,5.60
2023-10-26T05:58:39.738Z,9.40
2023-10-26T06:03:42.822Z,6.10
2023-10-26T06:08:46.080Z,5.80
2023-10-26T06:13:49.568Z,6.80
2023-10-26T06:18:52.641Z,5.50
2023-10-26T06:29:05.285Z,6.80
2023-10-26T06:39:10.635Z,7.30
2023-10-26T06:44:13.470Z,8.30
2023-10-26T06:49:29.787Z,7.50
2023-10-26T06:54:43.679Z,5.30
2023-10-26T06:59:47.429Z,7.00
2023-10-26T07:04:50.525Z,6.10
2023-10-26T07:14:56.130Z,6.30
2023-10-26T07:19:58.860Z,6.50
2023-10-26T07:25:03.203Z,6.00
2023-10-26T07:30:07.628Z,7.60
2023-10-26T07:35:10.544Z,7.80
2023-10-26T07:40:28.991Z,7.00
2023-10-26T07:45:33.187Z,5.70
2023-10-26T07:55:41.972Z,8.30
2023-10-26T08:00:45.566Z,6.20
2023-10-26T08:06:01.964Z,6.70
2023-10-26T08:11:14.149Z,6.10
2023-10-26T08:16:40.415Z,5.30
2023-10-26T08:21:39.779Z,5.60
2023-10-26T08:26:42.483Z,5.60
2023-10-26T08:31:45.601Z,6.00
2023-10-26T08:37:02.101Z,5.20
2023-10-26T08:42:13.427Z,7.50
2023-10-26T08:47:20.499Z,5.50
2023-10-26T08:52:24.820Z,7.60
2023-10-26T08:57:27.634Z,5.50
2023-10-26T09:02:30.445Z,7.30
2023-10-26T09:07:33.371Z,7.80
2023-10-26T09:12:36.363Z,5.60
2023-10-26T09:22:42.257Z,5.30
2023-10-26T09:39:44.315Z,4.90
2023-10-26T09:44:47.998Z,4.20
2023-10-26T09:49:51.255Z,4.80
2023-10-26T09:54:55.817Z,4.30
2023-10-26T10:00:00.743Z,4.90
2023-10-26T10:05:04.160Z,3.90
2023-10-26T10:10:10.054Z,4.20
2023-10-26T10:15:36.342Z,3.40
2023-10-26T10:20:38.816Z,4.90
2023-10-26T10:25:50.988Z,4.40
2023-10-26T10:30:59.469Z,4.60
2023-10-26T10:36:06.330Z,4.80
2023-10-26T10:41:10.583Z,4.30
2023-10-26T10:46:21.309Z,4.50
2023-10-26T10:51:33.451Z,4.80
2023-10-26T10:56:41.838Z,4.20
2023-10-26T11:01:45.645Z,5.90
2023-10-26T11:11:54.342Z,3.60
2023-10-26T11:16:57.439Z,3.70
2023-10-26T11:22:00.311Z,2.90
2023-10-26T11:27:07.866Z,11.20
2023-10-26T11:32:21.504Z,7.80
2023-10-26T11:37:27.115Z,4.30
2023-10-26T11:42:57.411Z,4.10
2023-10-26T11:48:12.006Z,4.00
2023-10-26T11:53:14.794Z,4.80
2023-10-26T11:58:19.332Z,5.20
2023-10-26T12:03:22.494Z,3.50
2023-10-26T12:08:25.400Z,4.40
2023-10-26T12:13:28.073Z,3.80
2023-10-26T12:18:30.940Z,3.50
2023-10-26T12:23:33.683Z,3.30
2023-10-26T12:28:36.468Z,2.90
2023-10-26T12:38:45.264Z,5.10
2023-10-26T12:43:48.015Z,5.10
2023-10-26T12:48:50.734Z,5.30
2023-10-26T12:53:53.830Z,4.10
2023-10-26T12:58:57.758Z,4.30
2023-10-26T13:04:00.644Z,4.50
2023-10-26T13:14:08.974Z,3.70
2023-10-26T13:19:11.703Z,4.60
2023-10-26T13:24:14.484Z,5.40
2023-10-26T13:29:17.219Z,5.50
2023-10-26T13:34:19.984Z,4.40
2023-10-26T13:39:23.019Z,5.30
2023-10-26T13:44:25.941Z,6.70
2023-10-26T13:49:29.186Z,5.10
2023-10-26T13:54:31.957Z,5.00
2023-10-26T13:59:38.725Z,4.70
2023-10-26T14:04:41.724Z,5.80
2023-10-26T14:09:45.289Z,5.10
2023-10-26T14:14:48.006Z,4.00
2023-10-26T14:19:50.771Z,5.60
2023-10-26T14:24:53.529Z,5.30
2023-10-26T14:29:56.491Z,5.40
2023-10-26T14:40:02.219Z,16.80
2023-10-26T14:45:05.838Z,10.50
2023-10-26T14:50:08.802Z,6.80
2023-10-26T14:55:11.726Z,8.50
2023-10-26T15:00:14.901Z,8.30
2023-10-26T15:05:18.069Z,19.00
2023-10-26T15:10:26.516Z,7.50
2023-10-26T15:15:31.767Z,8.00
2023-10-26T15:20:35.607Z,15.90
2023-10-26T15:25:38.496Z,13.10
2023-10-26T15:30:41.843Z,14.50
2023-10-26T15:41:02.262Z,14.00
2023-10-26T15:46:05.162Z,16.10
2023-10-26T15:56:11.899Z,19.00
2023-10-26T16:01:14.801Z,17.30
2023-10-26T16:06:19.580Z,24.10
2023-10-26T16:11:22.310Z,31.70
2023-10-26T16:16:25.161Z,30.00
2023-10-26T16:26:30.705Z,16.20
2023-10-26T16:31:33.597Z,14.10
2023-10-26T16:36:36.450Z,10.40
2023-10-26T16:41:39.379Z,12.80
2023-10-26T16:46:42.230Z,38.20
2023-10-26T16:51:45.178Z,17.90
2023-10-26T16:56:48.059Z,25.50
2023-10-26T17:01:50.775Z,17.20
2023-10-26T17:06:55.354Z,11.30
2023-10-26T17:11:58.229Z,16.20
2023-10-26T17:17:01.263Z,10.70
2023-10-26T17:27:09.817Z,19.30
2023-10-26T17:32:12.533Z,9.30
2023-10-26T17:37:15.396Z,9.60
2023-10-26T17:42:18.103Z,10.70
2023-10-26T17:47:23.057Z,9.50
2023-10-26T17:52:26.265Z,7.30
2023-10-26T18:02:33.428Z,10.50
2023-10-26T18:07:36.237Z,8.60
2023-10-26T18:12:39.034Z,9.90
2023-10-26T18:17:41.870Z,16.70
2023-10-26T18:22:44.757Z,13.30
2023-10-26T18:27:47.467Z,8.80
2023-10-26T18:32:51.263Z,9.30
2023-10-26T18:37:54.948Z,6.80
2023-10-26T18:42:57.778Z,7.60
2023-10-26T18:48:01.230Z,10.70
2023-10-26T18:53:04.522Z,8.20
2023-10-26T18:58:11.319Z,7.20
2023-10-26T19:03:19.892Z,7.90
2023-10-26T19:08:24.351Z,11.40
2023-10-26T19:13:29.016Z,10.70
2023-10-26T19:18:32.778Z,9.90
2023-10-26T19:23:35.528Z,11.00
2023-10-26T19:28:39.034Z,10.00
2023-10-26T19:38:46.735Z,11.30
2023-10-26T19:43:49.518Z,11.40
2023-10-26T19:48:52.385Z,9.30
2023-10-26T19:53:55.138Z,13.00
2023-10-26T19:58:57.931Z,10.40
2023-10-26T20:04:01.359Z,9.60
2023-10-26T20:09:06.162Z,11.70
2023-10-26T20:14:09.279Z,12.90
2023-10-26T20:19:12.187Z,9.30
2023-10-26T20:29:18.815Z,11.60
2023-10-26T20:34:21.884Z,11.90
2023-10-26T20:44:27.442Z,11.80
2023-10-26T20:49:30.203Z,12.10
2023-10-26T20:59:38.677Z,9.80
2023-10-26T21:04:43.153Z,11.50
2023-10-26T21:09:46.030Z,10.70
2023-10-26T21:19:52.149Z,13.60
2023-10-26T21:29:57.646Z,11.40
2023-10-26T21:35:00.546Z,13.10
2023-10-26T21:40:03.831Z,11.50
2023-10-26T21:45:08.393Z,7.00
2023-10-26T21:50:11.260Z,11.50
2023-10-26T21:55:15.192Z,11.40
2023-10-26T22:00:21.444Z,11.70
2023-10-26T22:05:24.557Z,10.80
2023-10-26T22:15:30.508Z,10.10
2023-10-26T22:20:36.544Z,9.30
2023-10-26T22:25:39.278Z,8.70
2023-10-26T22:30:42.563Z,10.60
2023-10-26T22:35:45.575Z,10.60
2023-10-26T22:40:48.280Z,9.10
2023-10-26T22:45:51.252Z,10.40
2023-10-26T22:56:01.421Z,10.50
2023-10-26T23:01:07.221Z,11.50
2023-10-26T23:06:10.122Z,8.30
2023-10-26T23:11:12.840Z,7.90
2023-10-26T23:16:15.749Z,10.80
2023-10-26T23:21:18.522Z,9.50
2023-10-26T23:26:21.744Z,7.70
2023-10-26T23:31:24.768Z,8.50
2023-10-26T23:36:27.654Z,9.10
2023-10-26T23:41:30.779Z,6.70
2023-10-26T23:51:36.227Z,8.40
2023-10-26T23:56:38.953Z,7.90
